Terminal Aerodrome Forecast
Issued by NWS Atlanta, GA

Home | Current Version | Previous Version | Text Only | Print | Product List | Glossary On
Versions: 1 2 3 4 5 6 7 8 9 10 11 12 13 14 15 16 17 18 19 20 21
540
FTUS42 KFFC 251737
TAFMCN
TAF
KMCN 251737Z 2518/2618 30005KT P6SM SCT020 BKN100
      TEMPO 2520/2523 4SM -TSRA BKN035CB
     FM252300 20007KT P6SM SCT030 BKN250
     FM260900 02005KT P6SM SCT250
     FM261200 03005KT P6SM SCT250
     FM261600 06006KT P6SM BKN250=

USA.gov is the U.S. government's official web portal to all federal, state and local government web resources and services.